Time;durP1;ratioP1;P1;durP2;ratioP2;P2;SDS_P1;SDS_P2;PMS_P1;PMS_P2;Temp;Humidity;BMP_temperature;BMP_pressure;BME280_temperature;BME280_humidity;BME280_pressure;Samples;Min_cycle;Max_cycle;Signal;HPM_P1;HPM_P2
2023/12/08 08:53:08;;;;;;;34.50;8.03;;;;;;;;;;5684704;23;20050;-89
2023/12/08 08:55:34;;;;;;;24.80;7.90;;;;;;;;;;4947798;28;20031;-88
2023/12/08 08:57:59;;;;;;;29.03;9.87;;;;;;;;;;4958386;28;20245;-88
2023/12/08 09:00:26;;;;;;;32.80;8.17;;;;;;;;;;4952578;29;20466;-87
2023/12/08 09:02:52;;;;;;;28.20;8.43;;;;;;;;;;4955271;28;20382;-88
2023/12/08 09:05:20;;;;;;;29.87;8.43;;;;;;;;;;4953718;28;20209;-88
2023/12/08 09:07:46;;;;;;;21.67;7.67;;;;;;;;;;4949475;28;20546;-88
2023/12/08 09:10:11;;;;;;;35.33;9.93;;;;;;;;;;4951740;29;20043;-86
2023/12/08 09:12:37;;;;;;;33.33;9.20;;;;;;;;;;4941985;29;20015;-87
2023/12/08 09:15:03;;;;;;;29.23;8.53;;;;;;;;;;4949975;28;20047;-89
2023/12/08 09:17:28;;;;;;;36.30;11.27;;;;;;;;;;4947416;28;20027;-88
2023/12/08 09:19:54;;;;;;;34.53;10.10;;;;;;;;;;4950710;28;20512;-87
2023/12/08 09:22:19;;;;;;;28.83;9.30;;;;;;;;;;4949888;28;20039;-85
2023/12/08 09:24:44;;;;;;;29.73;8.80;;;;;;;;;;4951433;29;20160;-89
2023/12/08 09:27:10;;;;;;;35.13;9.03;;;;;;;;;;4956041;28;20038;-88
2023/12/08 09:29:35;;;;;;;32.60;7.97;;;;;;;;;;4953470;28;20027;-87
2023/12/08 09:32:01;;;;;;;31.67;10.03;;;;;;;;;;4959082;28;20023;-88
2023/12/08 09:34:26;;;;;;;38.80;10.43;;;;;;;;;;4953881;29;20437;-88
2023/12/08 09:36:51;;;;;;;29.63;9.47;;;;;;;;;;4955937;28;20072;-88
2023/12/08 09:39:17;;;;;;;37.10;10.30;;;;;;;;;;4954561;28;20023;-88
2023/12/08 09:41:42;;;;;;;37.20;9.00;;;;;;;;;;4949310;28;20019;-86
2023/12/08 09:44:14;;;;;;;38.43;9.13;;;;;;;;;;4964790;28;20015;-87
2023/12/08 09:46:42;;;;;;;38.00;10.32;;;;;;;;;;4955572;28;20071;-88
2023/12/08 09:49:11;;;;;;;36.73;10.90;;;;;;;;;;4960286;28;20019;-87
2023/12/08 09:51:37;;;;;;;32.53;10.43;;;;;;;;;;4953299;28;20024;-88
2023/12/08 09:54:03;;;;;;;33.37;9.27;;;;;;;;;;4953885;28;20044;-90
2023/12/08 09:56:29;;;;;;;32.87;10.03;;;;;;;;;;4956566;28;20324;-89
2023/12/08 09:58:54;;;;;;;35.17;9.73;;;;;;;;;;4952779;28;20023;-88
2023/12/08 10:01:20;;;;;;;50.27;11.20;;;;;;;;;;4948699;29;20167;-86
2023/12/08 10:03:45;;;;;;;45.33;11.57;;;;;;;;;;4947728;29;20501;-86
2023/12/08 10:06:14;;;;;;;29.03;9.47;;;;;;;;;;4943427;29;20537;-86
2023/12/08 10:08:39;;;;;;;40.17;10.93;;;;;;;;;;4945933;28;20519;-88
2023/12/08 10:11:05;;;;;;;33.53;9.87;;;;;;;;;;4947686;29;20109;-87
2023/12/08 10:13:31;;;;;;;35.03;10.33;;;;;;;;;;4954118;28;20027;-87
2023/12/08 10:15:56;;;;;;;36.60;11.23;;;;;;;;;;4952905;28;20539;-88
2023/12/08 10:18:23;;;;;;;34.53;9.70;;;;;;;;;;4959137;28;20038;-87
2023/12/08 10:20:48;;;;;;;38.17;9.73;;;;;;;;;;4956109;28;20023;-87
2023/12/08 10:23:18;;;;;;;28.03;8.97;;;;;;;;;;4957706;28;20023;-86
2023/12/08 10:25:44;;;;;;;37.57;10.13;;;;;;;;;;4957488;28;20029;-85
2023/12/08 10:28:10;;;;;;;36.50;9.83;;;;;;;;;;4952602;28;20027;-86
2023/12/08 10:30:35;;;;;;;37.37;9.30;;;;;;;;;;4955369;28;20127;-86
2023/12/08 10:33:01;;;;;;;42.38;9.38;;;;;;;;;;4953900;28;20054;-85
2023/12/08 10:35:26;;;;;;;35.83;9.10;;;;;;;;;;4953882;28;20015;-85
2023/12/08 10:37:52;;;;;;;31.70;9.93;;;;;;;;;;4953180;28;20445;-86
2023/12/08 10:40:18;;;;;;;38.80;10.70;;;;;;;;;;4957080;28;20474;-86
2023/12/08 10:42:47;;;;;;;31.40;9.45;;;;;;;;;;4953417;28;20478;-86
2023/12/08 10:45:13;;;;;;;42.97;10.23;;;;;;;;;;4953521;28;20030;-86
2023/12/08 10:47:43;;;;;;;35.30;8.65;;;;;;;;;;4955334;28;20031;-86
2023/12/08 10:50:09;;;;;;;35.85;10.25;;;;;;;;;;4951603;28;20015;-86
2023/12/08 10:52:35;;;;;;;34.30;9.82;;;;;;;;;;4951661;29;20054;-85
2023/12/08 10:55:00;;;;;;;31.90;9.70;;;;;;;;;;4951875;28;20027;-87
2023/12/08 10:57:26;;;;;;;34.60;9.77;;;;;;;;;;4950769;28;20019;-86
2023/12/08 10:59:53;;;;;;;44.10;9.85;;;;;;;;;;4943575;29;20111;-86
2023/12/08 11:02:24;;;;;;;32.50;10.18;;;;;;;;;;4956054;28;20121;-85
2023/12/08 11:04:53;;;;;;;31.77;9.63;;;;;;;;;;4947935;28;20046;-86
2023/12/08 11:07:22;;;;;;;30.55;9.32;;;;;;;;;;4951297;28;20360;-84
2023/12/08 11:09:48;;;;;;;25.25;7.90;;;;;;;;;;4952135;28;20506;-85
2023/12/08 11:12:15;;;;;;;19.35;6.78;;;;;;;;;;4948458;29;20034;-86
2023/12/08 11:14:53;;;;;;;24.25;6.20;;;;;;;;;;4956818;28;20110;-85
2023/12/08 11:17:21;;;;;;;25.67;6.47;;;;;;;;;;4954392;28;20552;-86
2023/12/08 11:19:46;;;;;;;25.98;7.25;;;;;;;;;;4958445;28;20446;-85
2023/12/08 11:22:12;;;;;;;27.67;7.43;;;;;;;;;;4951442;28;20109;-86
2023/12/08 11:24:37;;;;;;;18.70;6.10;;;;;;;;;;4953019;28;20065;-89
2023/12/08 11:27:06;;;;;;;23.88;5.63;;;;;;;;;;4952368;28;20027;-89
2023/12/08 11:29:46;;;;;;;19.58;5.65;;;;;;;;;;4948755;28;20027;-87
2023/12/08 11:32:20;;;;;;;25.05;5.18;;;;;;;;;;4955362;28;20036;-87
2023/12/08 11:35:12;;;;;;;22.50;6.63;;;;;;;;;;4971204;28;20029;-88
2023/12/08 11:37:37;;;;;;;20.40;5.13;;;;;;;;;;4952393;28;20050;-87
2023/12/08 11:40:10;;;;;;;24.17;5.43;;;;;;;;;;4955808;28;20039;-87
2023/12/08 11:42:36;;;;;;;19.27;5.13;;;;;;;;;;4952555;28;20050;-87
2023/12/08 11:45:02;;;;;;;17.95;4.97;;;;;;;;;;4952505;28;20061;-87
2023/12/08 11:47:28;;;;;;;22.00;6.15;;;;;;;;;;4951501;28;20529;-87
2023/12/08 11:49:54;;;;;;;14.82;4.75;;;;;;;;;;4958692;28;20454;-88
2023/12/08 11:52:33;;;;;;;24.95;6.28;;;;;;;;;;4951108;29;20466;-88
2023/12/08 11:55:22;;;;;;;19.38;6.03;;;;;;;;;;4944129;29;20035;-88
2023/12/08 11:58:05;;;;;;;18.83;5.30;;;;;;;;;;4950391;28;20035;-88
2023/12/08 12:00:35;;;;;;;24.05;6.50;;;;;;;;;;4973438;28;20478;-88
2023/12/08 12:03:07;;;;;;;24.47;6.63;;;;;;;;;;4954119;28;20328;-88
2023/12/08 12:05:35;;;;;;;21.58;5.60;;;;;;;;;;4953084;28;20051;-88
2023/12/08 12:08:00;;;;;;;28.45;6.18;;;;;;;;;;4964893;28;20066;-88
2023/12/08 12:10:27;;;;;;;20.13;5.47;;;;;;;;;;4960637;28;20058;-86
2023/12/08 12:13:00;;;;;;;29.77;7.85;;;;;;;;;;4946394;28;20106;-86
2023/12/08 12:15:25;;;;;;;24.70;6.65;;;;;;;;;;4955860;28;20749;-86
2023/12/08 12:17:53;;;;;;;15.90;4.77;;;;;;;;;;4958166;28;20425;-86
2023/12/08 12:20:18;;;;;;;23.67;6.60;;;;;;;;;;4953581;29;20038;-86
2023/12/08 12:22:44;;;;;;;26.00;6.50;;;;;;;;;;4953897;29;20023;-86
2023/12/08 12:25:12;;;;;;;25.70;6.13;;;;;;;;;;4954400;29;20019;-86
2023/12/08 12:27:41;;;;;;;17.05;5.70;;;;;;;;;;4955296;28;20458;-87
2023/12/08 12:30:08;;;;;;;25.80;6.13;;;;;;;;;;4954181;29;20813;-88
2023/12/08 12:32:33;;;;;;;27.03;6.37;;;;;;;;;;4953529;28;20031;-87
2023/12/08 12:34:58;;;;;;;17.30;6.10;;;;;;;;;;4955922;28;20023;-88
2023/12/08 12:37:24;;;;;;;15.77;6.13;;;;;;;;;;4954341;28;20028;-88
2023/12/08 12:39:49;;;;;;;16.63;5.60;;;;;;;;;;4960981;28;20531;-88
2023/12/08 12:42:14;;;;;;;26.05;6.55;;;;;;;;;;4955828;28;20031;-88
2023/12/08 12:44:40;;;;;;;21.85;6.78;;;;;;;;;;4956239;28;20038;-87
2023/12/08 12:47:12;;;;;;;21.55;6.15;;;;;;;;;;4951498;28;20058;-89
2023/12/08 12:49:58;;;;;;;21.90;6.15;;;;;;;;;;4954924;29;20107;-87
2023/12/08 12:52:28;;;;;;;22.35;6.53;;;;;;;;;;4954242;28;20026;-86
2023/12/08 12:54:53;;;;;;;23.42;6.57;;;;;;;;;;4951284;28;20050;-87
2023/12/08 12:57:21;;;;;;;25.42;5.78;;;;;;;;;;4952277;28;20038;-88
2023/12/08 12:59:52;;;;;;;14.30;5.22;;;;;;;;;;4954388;28;20462;-88
2023/12/08 13:02:28;;;;;;;20.25;6.05;;;;;;;;;;4958170;28;20452;-86
2023/12/08 13:04:53;;;;;;;19.60;7.00;;;;;;;;;;4965383;28;20031;-89
2023/12/08 13:07:18;;;;;;;25.90;7.03;;;;;;;;;;4956335;28;20041;-89
2023/12/08 13:09:44;;;;;;;26.33;7.38;;;;;;;;;;4960176;28;20019;-89
2023/12/08 13:12:10;;;;;;;25.63;6.40;;;;;;;;;;4959665;28;20078;-88
2023/12/08 13:14:35;;;;;;;18.95;6.72;;;;;;;;;;4959680;28;20047;-88
2023/12/08 13:17:00;;;;;;;27.75;7.85;;;;;;;;;;4962999;28;20023;-87
2023/12/08 13:19:25;;;;;;;19.75;5.97;;;;;;;;;;4953122;28;20094;-88
2023/12/08 13:21:51;;;;;;;19.80;5.97;;;;;;;;;;4953443;29;20078;-88
2023/12/08 13:24:16;;;;;;;23.40;6.70;;;;;;;;;;4956442;28;20042;-85
2023/12/08 13:26:41;;;;;;;21.10;6.50;;;;;;;;;;4953242;28;20027;-85
2023/12/08 13:29:07;;;;;;;24.40;6.95;;;;;;;;;;4954963;28;20475;-88
2023/12/08 13:31:32;;;;;;;20.02;6.00;;;;;;;;;;4960595;28;20043;-88
2023/12/08 13:33:57;;;;;;;25.30;6.82;;;;;;;;;;4953652;29;20458;-87
2023/12/08 13:36:22;;;;;;;18.90;6.47;;;;;;;;;;4954919;28;20018;-88
2023/12/08 13:38:48;;;;;;;16.13;6.03;;;;;;;;;;4965841;28;20177;-86
2023/12/08 13:41:14;;;;;;;21.98;6.72;;;;;;;;;;4961299;28;20312;-86
2023/12/08 13:43:39;;;;;;;22.02;5.60;;;;;;;;;;4953933;28;20023;-86
2023/12/08 13:46:05;;;;;;;22.98;6.97;;;;;;;;;;4962456;28;20080;-86
2023/12/08 13:48:30;;;;;;;16.25;5.70;;;;;;;;;;4976707;28;20022;-91
2023/12/08 13:50:55;;;;;;;26.23;7.18;;;;;;;;;;4957052;28;20015;-91
2023/12/08 13:53:20;;;;;;;20.13;6.85;;;;;;;;;;4962925;28;20042;-87
2023/12/08 13:55:46;;;;;;;29.40;6.70;;;;;;;;;;4956107;28;20019;-87
2023/12/08 13:58:11;;;;;;;17.67;6.30;;;;;;;;;;4950903;28;20020;-87
2023/12/08 14:00:36;;;;;;;20.08;6.70;;;;;;;;;;4952293;28;20031;-88
2023/12/08 14:03:01;;;;;;;22.58;6.70;;;;;;;;;;4952805;28;20031;-87
2023/12/08 14:05:27;;;;;;;20.00;6.18;;;;;;;;;;4954349;29;20030;-88
2023/12/08 14:07:52;;;;;;;18.02;5.45;;;;;;;;;;4949809;28;20034;-87
2023/12/08 14:10:17;;;;;;;22.27;6.30;;;;;;;;;;4957216;28;20093;-88
2023/12/08 14:12:44;;;;;;;22.48;6.93;;;;;;;;;;4953348;29;20637;-88
2023/12/08 14:15:09;;;;;;;16.25;5.90;;;;;;;;;;4953115;29;20106;-87
2023/12/08 14:17:35;;;;;;;15.13;5.80;;;;;;;;;;4954000;28;20582;-88
2023/12/08 14:20:00;;;;;;;19.60;6.65;;;;;;;;;;4955589;28;20045;-87
2023/12/08 14:22:26;;;;;;;23.42;5.25;;;;;;;;;;4957867;28;20035;-88
2023/12/08 14:24:51;;;;;;;19.90;5.65;;;;;;;;;;4953682;28;20035;-89
2023/12/08 14:27:17;;;;;;;13.02;5.10;;;;;;;;;;4954051;28;20099;-88
2023/12/08 14:29:42;;;;;;;18.52;6.43;;;;;;;;;;4953312;28;20019;-82
2023/12/08 14:32:07;;;;;;;14.43;5.72;;;;;;;;;;4958785;28;20023;-82
2023/12/08 14:34:32;;;;;;;18.70;6.20;;;;;;;;;;4956632;28;20373;-82
2023/12/08 14:36:58;;;;;;;17.92;5.55;;;;;;;;;;4953479;28;20183;-88
2023/12/08 14:39:23;;;;;;;16.73;6.00;;;;;;;;;;4954272;29;20066;-88
2023/12/08 14:41:48;;;;;;;26.95;7.82;;;;;;;;;;4952906;29;20019;-86
2023/12/08 14:44:14;;;;;;;22.88;7.57;;;;;;;;;;4952748;29;20023;-86
2023/12/08 14:46:39;;;;;;;24.02;5.88;;;;;;;;;;4952498;29;20034;-86
2023/12/08 14:49:05;;;;;;;22.58;5.35;;;;;;;;;;4953573;28;20735;-87
2023/12/08 14:51:30;;;;;;;22.40;5.65;;;;;;;;;;4953770;28;20547;-87
2023/12/08 14:53:56;;;;;;;24.20;6.28;;;;;;;;;;4952104;29;20023;-85
2023/12/08 14:56:25;;;;;;;27.88;8.90;;;;;;;;;;4974572;28;20027;-87
2023/12/08 14:58:50;;;;;;;22.15;6.75;;;;;;;;;;4955352;28;20053;-86
2023/12/08 15:01:17;;;;;;;17.92;6.30;;;;;;;;;;4952369;29;20019;-87
2023/12/08 15:03:43;;;;;;;19.95;6.50;;;;;;;;;;4952376;29;20024;-87
2023/12/08 15:06:08;;;;;;;16.38;6.80;;;;;;;;;;4952272;29;20024;-82
2023/12/08 15:08:33;;;;;;;30.45;8.68;;;;;;;;;;4953294;29;20649;-82
2023/12/08 15:10:58;;;;;;;28.55;9.10;;;;;;;;;;4954089;29;20044;-83
2023/12/08 15:13:24;;;;;;;27.52;9.30;;;;;;;;;;4954029;29;20094;-83
2023/12/08 15:15:49;;;;;;;23.42;7.72;;;;;;;;;;4954046;29;20050;-83
2023/12/08 15:18:14;;;;;;;26.00;7.13;;;;;;;;;;4952521;29;20035;-82
2023/12/08 15:20:41;;;;;;;23.65;6.88;;;;;;;;;;4952823;29;20383;-83
2023/12/08 15:23:07;;;;;;;26.83;6.50;;;;;;;;;;4952622;29;20062;-83
2023/12/08 15:25:33;;;;;;;21.83;7.13;;;;;;;;;;4952446;29;20031;-83
2023/12/08 15:27:58;;;;;;;20.67;6.90;;;;;;;;;;4952708;29;20066;-83
2023/12/08 15:30:24;;;;;;;23.23;6.03;;;;;;;;;;4952618;29;20027;-82
2023/12/08 15:32:49;;;;;;;18.17;5.80;;;;;;;;;;4952530;29;20034;-82
2023/12/08 15:35:15;;;;;;;21.77;5.97;;;;;;;;;;4952457;29;20055;-83
2023/12/08 15:37:40;;;;;;;15.30;5.25;;;;;;;;;;4952442;29;20039;-83
2023/12/08 15:40:06;;;;;;;14.40;6.35;;;;;;;;;;4953778;28;20032;-82
2023/12/08 15:42:31;;;;;;;24.40;7.85;;;;;;;;;;4956120;28;20031;-82
2023/12/08 15:44:56;;;;;;;19.80;6.80;;;;;;;;;;4956140;29;20057;-83
2023/12/08 15:47:22;;;;;;;23.55;6.70;;;;;;;;;;4956208;29;20031;-83
2023/12/08 15:49:47;;;;;;;26.48;7.82;;;;;;;;;;4955912;29;20027;-83
2023/12/08 15:52:12;;;;;;;17.05;6.22;;;;;;;;;;4955810;29;20028;-83
2023/12/08 15:54:37;;;;;;;22.17;5.75;;;;;;;;;;4955676;28;20058;-82
2023/12/08 15:57:03;;;;;;;18.38;6.95;;;;;;;;;;4964771;28;20466;-82
2023/12/08 15:59:28;;;;;;;24.27;6.65;;;;;;;;;;4954476;29;20469;-82
2023/12/08 16:01:56;;;;;;;19.45;6.68;;;;;;;;;;4955918;29;20027;-82
2023/12/08 16:04:21;;;;;;;16.15;6.53;;;;;;;;;;4955048;29;20417;-82
2023/12/08 16:06:46;;;;;;;25.05;6.75;;;;;;;;;;4955474;29;20110;-82
2023/12/08 16:09:12;;;;;;;20.20;7.65;;;;;;;;;;4955517;29;20501;-82
2023/12/08 16:11:37;;;;;;;20.85;7.63;;;;;;;;;;4955534;28;20336;-82
2023/12/08 16:14:02;;;;;;;22.00;6.80;;;;;;;;;;4955359;29;20394;-82
2023/12/08 16:16:27;;;;;;;22.80;6.65;;;;;;;;;;4949663;29;20031;-82
2023/12/08 16:18:53;;;;;;;19.20;6.25;;;;;;;;;;4955659;29;20122;-82
2023/12/08 16:21:19;;;;;;;18.65;6.63;;;;;;;;;;4955352;29;20082;-82
2023/12/08 16:23:45;;;;;;;22.17;6.28;;;;;;;;;;4955575;29;20058;-82
2023/12/08 16:26:10;;;;;;;24.10;6.40;;;;;;;;;;4951530;29;20031;-82
2023/12/08 16:28:37;;;;;;;30.15;7.65;;;;;;;;;;4956075;29;20129;-82
2023/12/08 16:31:02;;;;;;;16.55;7.38;;;;;;;;;;4955510;29;20389;-83
2023/12/08 16:33:27;;;;;;;24.88;7.30;;;;;;;;;;4956743;29;20015;-82
2023/12/08 16:35:52;;;;;;;24.48;6.72;;;;;;;;;;4955392;29;20138;-83
2023/12/08 16:38:18;;;;;;;26.80;6.93;;;;;;;;;;4954727;29;20028;-82
2023/12/08 16:40:43;;;;;;;25.42;7.75;;;;;;;;;;4955577;29;20031;-83
2023/12/08 16:43:11;;;;;;;23.33;6.47;;;;;;;;;;4954805;29;20031;-83
2023/12/08 16:45:37;;;;;;;22.98;7.20;;;;;;;;;;4956047;29;20023;-83
2023/12/08 16:48:02;;;;;;;19.25;5.80;;;;;;;;;;4954875;29;20489;-83
2023/12/08 16:50:27;;;;;;;26.05;7.55;;;;;;;;;;4954951;29;20031;-82
2023/12/08 16:52:52;;;;;;;20.23;7.35;;;;;;;;;;4953576;28;20019;-82
2023/12/08 16:55:18;;;;;;;15.02;5.60;;;;;;;;;;4942895;29;20028;-93
2023/12/08 16:57:43;;;;;;;23.00;7.00;;;;;;;;;;4957074;28;20019;-92
2023/12/08 17:00:08;;;;;;;16.85;6.40;;;;;;;;;;4956115;29;20023;-92
2023/12/08 17:02:34;;;;;;;21.85;6.68;;;;;;;;;;4955811;29;20121;-92
2023/12/08 17:04:59;;;;;;;18.45;6.15;;;;;;;;;;4942919;29;20289;-93
2023/12/08 17:07:24;;;;;;;23.90;6.45;;;;;;;;;;4955824;29;20027;-92
2023/12/08 17:09:50;;;;;;;23.60;5.78;;;;;;;;;;4955842;29;20186;-92
2023/12/08 17:12:15;;;;;;;22.10;7.07;;;;;;;;;;4956819;29;20023;-93
2023/12/08 17:14:40;;;;;;;11.40;4.18;;;;;;;;;;4956943;29;20034;-93
2023/12/08 17:17:05;;;;;;;21.25;5.72;;;;;;;;;;4955442;28;20058;-93
2023/12/08 17:19:31;;;;;;;22.35;6.15;;;;;;;;;;4955221;29;20058;-92
2023/12/08 17:21:57;;;;;;;25.40;6.55;;;;;;;;;;4955157;29;20019;-93
2023/12/08 17:24:24;;;;;;;14.77;5.10;;;;;;;;;;4962993;28;20027;-93
2023/12/08 17:26:52;;;;;;;26.73;6.82;;;;;;;;;;4955075;29;20509;-93
2023/12/08 17:29:17;;;;;;;16.52;5.70;;;;;;;;;;4955169;29;20066;-93
2023/12/08 17:31:42;;;;;;;22.88;5.70;;;;;;;;;;4955141;29;20027;-92
2023/12/08 17:34:08;;;;;;;18.58;5.85;;;;;;;;;;4938298;29;20020;-87
2023/12/08 17:36:33;;;;;;;22.77;5.60;;;;;;;;;;4970282;28;20070;-87
2023/12/08 17:39:02;;;;;;;10.80;4.25;;;;;;;;;;4953282;28;20556;-87
2023/12/08 17:41:27;;;;;;;13.07;4.97;;;;;;;;;;4954717;28;20105;-87
2023/12/08 17:43:52;;;;;;;22.45;5.82;;;;;;;;;;4953656;28;20070;-87
2023/12/08 17:46:18;;;;;;;14.07;4.43;;;;;;;;;;4955016;28;20022;-86
2023/12/08 17:48:43;;;;;;;19.02;5.40;;;;;;;;;;4954825;29;20087;-92
2023/12/08 17:51:10;;;;;;;24.10;6.15;;;;;;;;;;4954000;28;20050;-85
2023/12/08 17:53:35;;;;;;;15.73;5.28;;;;;;;;;;4953398;28;20343;-85
2023/12/08 17:56:00;;;;;;;18.13;5.78;;;;;;;;;;4953288;29;20034;-85
2023/12/08 17:58:26;;;;;;;17.40;5.15;;;;;;;;;;4953634;28;20039;-85
2023/12/08 18:00:51;;;;;;;13.45;5.85;;;;;;;;;;4952877;29;20026;-85
2023/12/08 18:03:18;;;;;;;14.73;4.90;;;;;;;;;;4950060;29;20038;-85
2023/12/08 18:05:43;;;;;;;20.50;6.05;;;;;;;;;;4951783;28;20043;-85
2023/12/08 18:08:08;;;;;;;22.42;5.75;;;;;;;;;;4951147;29;20097;-85
2023/12/08 18:10:34;;;;;;;19.33;5.78;;;;;;;;;;4952401;29;20379;-85
2023/12/08 18:12:59;;;;;;;13.65;4.50;;;;;;;;;;4946147;29;20027;-86
2023/12/08 18:15:24;;;;;;;16.35;4.53;;;;;;;;;;4948857;29;20023;-85
2023/12/08 18:17:49;;;;;;;10.85;4.13;;;;;;;;;;4948157;29;20031;-85
2023/12/08 18:20:16;;;;;;;21.25;5.70;;;;;;;;;;4949173;29;20023;-85
2023/12/08 18:22:41;;;;;;;12.10;3.85;;;;;;;;;;4949333;29;20152;-85
2023/12/08 18:25:07;;;;;;;18.27;4.80;;;;;;;;;;4944220;29;20114;-85
2023/12/08 18:27:32;;;;;;;17.92;5.47;;;;;;;;;;4949355;29;20413;-85
2023/12/08 18:29:58;;;;;;;16.15;4.70;;;;;;;;;;4937727;29;20050;-87
2023/12/08 18:32:23;;;;;;;18.58;5.53;;;;;;;;;;4952643;29;20114;-86
2023/12/08 18:34:48;;;;;;;15.95;5.43;;;;;;;;;;4952707;29;20019;-87
2023/12/08 18:37:13;;;;;;;19.38;4.88;;;;;;;;;;4955529;28;20036;-87
2023/12/08 18:39:39;;;;;;;17.42;5.25;;;;;;;;;;4952648;29;20036;-86
2023/12/08 18:42:04;;;;;;;21.08;5.10;;;;;;;;;;4951441;29;20118;-87
2023/12/08 18:44:29;;;;;;;14.52;5.18;;;;;;;;;;4952414;29;20034;-87
2023/12/08 18:46:54;;;;;;;16.80;4.70;;;;;;;;;;4953925;29;20015;-87
2023/12/08 18:49:20;;;;;;;14.98;4.63;;;;;;;;;;4952527;29;20463;-87
2023/12/08 18:51:46;;;;;;;17.30;4.45;;;;;;;;;;4951691;29;20023;-87
2023/12/08 18:54:12;;;;;;;17.15;5.03;;;;;;;;;;4952398;29;20851;-87
2023/12/08 18:56:37;;;;;;;18.65;4.40;;;;;;;;;;4940253;29;20075;-87
2023/12/08 18:59:02;;;;;;;24.95;4.70;;;;;;;;;;4948322;29;20119;-87
2023/12/08 19:01:28;;;;;;;14.32;4.22;;;;;;;;;;4940151;29;20027;-87
2023/12/08 19:03:53;;;;;;;13.50;5.22;;;;;;;;;;4953477;29;20054;-92
2023/12/08 19:06:21;;;;;;;10.43;4.00;;;;;;;;;;4951797;29;20035;-85
2023/12/08 19:08:47;;;;;;;21.00;4.45;;;;;;;;;;4951929;29;20621;-84
2023/12/08 19:11:15;;;;;;;25.05;4.97;;;;;;;;;;4949503;29;20027;-85
2023/12/08 19:13:41;;;;;;;14.70;4.82;;;;;;;;;;4950093;28;20384;-84
2023/12/08 19:16:07;;;;;;;19.55;5.60;;;;;;;;;;4944085;28;20111;-84
2023/12/08 19:18:32;;;;;;;18.88;4.35;;;;;;;;;;4955648;29;20090;-84
2023/12/08 19:20:57;;;;;;;15.50;3.70;;;;;;;;;;4956716;28;20030;-84
2023/12/08 19:23:23;;;;;;;17.73;4.20;;;;;;;;;;4957421;28;20445;-84
2023/12/08 19:25:49;;;;;;;18.17;5.13;;;;;;;;;;4955776;29;20364;-84
2023/12/08 19:28:15;;;;;;;14.70;4.45;;;;;;;;;;4955673;29;20023;-84
2023/12/08 19:30:40;;;;;;;16.45;3.88;;;;;;;;;;4956067;29;20137;-85
2023/12/08 19:33:05;;;;;;;13.35;3.83;;;;;;;;;;4951919;29;20435;-84
2023/12/08 19:35:30;;;;;;;16.70;3.88;;;;;;;;;;4955568;28;20200;-86
2023/12/08 19:37:59;;;;;;;18.67;4.00;;;;;;;;;;4955418;29;20019;-86
2023/12/08 19:40:24;;;;;;;20.13;4.35;;;;;;;;;;4955576;29;20030;-86
2023/12/08 19:42:49;;;;;;;19.50;4.03;;;;;;;;;;4955354;28;20019;-86
2023/12/08 19:45:16;;;;;;;13.45;3.20;;;;;;;;;;4951384;28;20020;-86
2023/12/08 19:47:41;;;;;;;19.83;4.53;;;;;;;;;;4955520;29;20038;-84
2023/12/08 19:50:06;;;;;;;18.13;4.90;;;;;;;;;;4956777;29;20106;-84
2023/12/08 19:52:33;;;;;;;21.53;4.33;;;;;;;;;;4950368;28;20449;-85
2023/12/08 19:54:59;;;;;;;19.63;4.00;;;;;;;;;;4955212;29;20023;-83
2023/12/08 19:57:24;;;;;;;18.30;3.60;;;;;;;;;;4955569;29;20028;-81
2023/12/08 19:59:50;;;;;;;21.58;4.68;;;;;;;;;;4954476;29;20042;-81
2023/12/08 20:02:22;;;;;;;9.75;3.17;;;;;;;;;;4955428;29;20020;-82
2023/12/08 20:04:47;;;;;;;20.65;3.33;;;;;;;;;;4955545;29;20023;-81
2023/12/08 20:07:13;;;;;;;14.33;4.60;;;;;;;;;;4945985;29;20024;-81
2023/12/08 20:09:39;;;;;;;12.33;3.13;;;;;;;;;;4945679;29;20031;-81
2023/12/08 20:12:04;;;;;;;17.58;4.85;;;;;;;;;;4949069;28;20023;-81
2023/12/08 20:14:33;;;;;;;15.93;3.60;;;;;;;;;;4940928;29;20030;-82
2023/12/08 20:16:58;;;;;;;18.43;4.20;;;;;;;;;;4953074;29;20094;-92
2023/12/08 20:19:23;;;;;;;21.97;5.67;;;;;;;;;;4945208;29;20028;-92
2023/12/08 20:21:49;;;;;;;22.67;5.20;;;;;;;;;;4967081;28;20019;-92
2023/12/08 20:24:15;;;;;;;15.30;4.57;;;;;;;;;;4950961;29;20035;-91
2023/12/08 20:26:41;;;;;;;17.57;4.90;;;;;;;;;;4955339;29;20099;-93
2023/12/08 20:29:06;;;;;;;19.20;5.37;;;;;;;;;;4964858;28;20092;-83
2023/12/08 20:31:32;;;;;;;20.23;4.23;;;;;;;;;;4949745;28;20046;-84
2023/12/08 20:33:57;;;;;;;18.47;4.27;;;;;;;;;;4953756;29;20107;-84
2023/12/08 20:36:22;;;;;;;23.47;4.53;;;;;;;;;;4953680;29;20063;-84
2023/12/08 20:38:47;;;;;;;16.37;4.63;;;;;;;;;;4956021;28;20104;-83
2023/12/08 20:41:13;;;;;;;21.23;4.15;;;;;;;;;;4950554;29;20089;-83
2023/12/08 20:43:38;;;;;;;17.47;4.60;;;;;;;;;;4953305;29;20369;-85
2023/12/08 20:46:04;;;;;;;19.65;4.60;;;;;;;;;;4935545;29;20031;-85
2023/12/08 20:48:30;;;;;;;21.00;4.57;;;;;;;;;;4934665;29;20034;-84
2023/12/08 20:50:57;;;;;;;16.13;4.18;;;;;;;;;;4952705;29;20020;-85
2023/12/08 20:53:23;;;;;;;16.30;4.45;;;;;;;;;;4950555;29;20035;-85
2023/12/08 20:55:48;;;;;;;20.70;4.82;;;;;;;;;;4950140;29;20526;-85
2023/12/08 20:58:13;;;;;;;21.40;5.53;;;;;;;;;;4952843;29;20030;-85
2023/12/08 21:00:39;;;;;;;20.05;5.43;;;;;;;;;;4954833;28;20110;-85
2023/12/08 21:03:05;;;;;;;21.73;5.53;;;;;;;;;;4950389;29;20078;-85
2023/12/08 21:05:30;;;;;;;18.77;5.63;;;;;;;;;;4951152;29;20494;-85
2023/12/08 21:07:55;;;;;;;18.67;4.50;;;;;;;;;;4945808;29;20028;-83
2023/12/08 21:10:21;;;;;;;13.00;4.23;;;;;;;;;;4948856;29;20194;-83
2023/12/08 21:12:46;;;;;;;15.43;4.43;;;;;;;;;;4942271;29;20425;-83
2023/12/08 21:15:16;;;;;;;18.17;4.20;;;;;;;;;;4946337;29;20106;-83
2023/12/08 21:17:41;;;;;;;21.53;4.73;;;;;;;;;;4941065;29;20030;-83
2023/12/08 21:20:07;;;;;;;18.60;4.53;;;;;;;;;;4942376;29;20023;-83
2023/12/08 21:22:39;;;;;;;21.87;5.23;;;;;;;;;;4939060;29;20024;-83
2023/12/08 21:25:04;;;;;;;14.45;4.63;;;;;;;;;;4940929;29;20094;-83
2023/12/08 21:27:30;;;;;;;21.83;4.00;;;;;;;;;;4935252;29;20036;-83
2023/12/08 21:29:55;;;;;;;20.73;4.67;;;;;;;;;;4935014;29;20023;-83
2023/12/08 21:32:21;;;;;;;19.10;4.50;;;;;;;;;;4946797;29;20023;-83
2023/12/08 21:34:46;;;;;;;17.37;3.77;;;;;;;;;;4945005;29;20084;-83
2023/12/08 21:37:11;;;;;;;11.90;3.77;;;;;;;;;;4944605;29;20027;-83
2023/12/08 21:39:37;;;;;;;19.55;4.20;;;;;;;;;;4938646;29;20055;-83
2023/12/08 21:42:02;;;;;;;21.13;4.53;;;;;;;;;;4944082;29;20019;-83
2023/12/08 21:44:27;;;;;;;20.63;4.43;;;;;;;;;;4937031;29;20016;-83
2023/12/08 21:46:53;;;;;;;10.23;3.53;;;;;;;;;;4934719;29;20031;-83
2023/12/08 21:49:20;;;;;;;26.95;5.32;;;;;;;;;;4940792;29;20332;-83
2023/12/08 21:51:45;;;;;;;40.37;4.80;;;;;;;;;;4950166;29;20057;-83
2023/12/08 21:54:10;;;;;;;19.20;5.33;;;;;;;;;;4950603;28;20059;-84
2023/12/08 21:56:38;;;;;;;21.50;4.00;;;;;;;;;;4953168;29;20043;-91
2023/12/08 21:59:04;;;;;;;18.30;4.37;;;;;;;;;;4949664;29;20106;-84
2023/12/08 22:01:29;;;;;;;16.93;4.10;;;;;;;;;;4950385;29;20054;-84
2023/12/08 22:03:56;;;;;;;18.30;4.07;;;;;;;;;;4951825;28;20039;-85
2023/12/08 22:06:21;;;;;;;17.17;4.20;;;;;;;;;;4945925;29;20030;-85
2023/12/08 22:08:47;;;;;;;17.60;3.78;;;;;;;;;;4948564;29;20023;-85
2023/12/08 22:11:12;;;;;;;22.00;5.17;;;;;;;;;;4941898;29;20154;-84
2023/12/08 22:13:37;;;;;;;24.13;3.95;;;;;;;;;;4951348;29;20020;-82
2023/12/08 22:16:03;;;;;;;25.30;4.83;;;;;;;;;;4946342;29;20054;-82
2023/12/08 22:18:28;;;;;;;16.33;3.78;;;;;;;;;;4950827;29;20419;-82
2023/12/08 22:20:53;;;;;;;15.10;3.77;;;;;;;;;;4938213;29;20098;-82
2023/12/08 22:23:18;;;;;;;13.98;3.67;;;;;;;;;;4945130;29;20494;-81
2023/12/08 22:25:44;;;;;;;12.67;4.27;;;;;;;;;;4942491;29;20015;-82
2023/12/08 22:28:10;;;;;;;24.13;4.53;;;;;;;;;;4941880;29;20030;-81
2023/12/08 22:30:35;;;;;;;22.30;3.83;;;;;;;;;;4940647;29;20058;-82
2023/12/08 22:33:00;;;;;;;17.20;4.40;;;;;;;;;;4940858;29;20486;-82
2023/12/08 22:35:26;;;;;;;25.40;5.17;;;;;;;;;;4950487;29;20047;-82
2023/12/08 22:37:51;;;;;;;18.70;4.50;;;;;;;;;;4949531;29;20024;-82
2023/12/08 22:40:16;;;;;;;15.83;4.60;;;;;;;;;;4944835;29;20028;-85
2023/12/08 22:42:42;;;;;;;12.83;4.00;;;;;;;;;;4949012;29;20023;-85
2023/12/08 22:45:07;;;;;;;19.17;4.37;;;;;;;;;;4940111;29;20032;-84
2023/12/08 22:47:33;;;;;;;18.53;4.60;;;;;;;;;;4934978;29;20086;-84
2023/12/08 22:49:58;;;;;;;23.80;5.40;;;;;;;;;;4951554;29;20023;-84
2023/12/08 22:52:23;;;;;;;22.50;3.83;;;;;;;;;;4959876;28;20023;-85
2023/12/08 22:54:48;;;;;;;14.47;4.63;;;;;;;;;;4943554;29;20031;-81
2023/12/08 22:57:14;;;;;;;19.20;4.57;;;;;;;;;;4947557;29;20390;-82
2023/12/08 22:59:39;;;;;;;16.03;4.90;;;;;;;;;;4950714;29;20024;-81
2023/12/08 23:02:04;;;;;;;23.67;5.30;;;;;;;;;;4951601;29;20042;-81
2023/12/08 23:04:29;;;;;;;22.17;3.90;;;;;;;;;;4952830;29;20034;-82
2023/12/08 23:06:55;;;;;;;17.53;4.33;;;;;;;;;;4954075;28;20023;-82
2023/12/08 23:09:20;;;;;;;21.07;4.67;;;;;;;;;;4954207;28;20046;-82
2023/12/08 23:11:45;;;;;;;17.53;4.40;;;;;;;;;;4952635;29;20054;-81
2023/12/08 23:14:11;;;;;;;17.03;4.00;;;;;;;;;;4952674;29;20070;-82